Time;durP1;ratioP1;P1;durP2;ratioP2;P2;SDS_P1;SDS_P2;PMS_P1;PMS_P2;Temp;Humidity;BMP_temperature;BMP_pressure;BME280_temperature;BME280_humidity;BME280_pressure;Samples;Min_cycle;Max_cycle;Signal;HPM_P1;HPM_P2
2023/06/29 00:31:40;;;;;;;3.80;1.55;;;12.20;99.90;;;;;;5135090;27;20042;-71
2023/06/29 00:34:06;;;;;;;3.63;1.63;;;12.10;99.90;;;;;;5134650;27;20098;-72
2023/06/29 00:36:32;;;;;;;5.75;3.47;;;12.10;99.90;;;;;;5135002;27;20393;-71
2023/06/29 00:38:57;;;;;;;7.88;4.55;;;12.00;99.90;;;;;;5116416;27;20027;-72
2023/06/29 00:41:23;;;;;;;9.02;4.13;;;12.00;99.90;;;;;;5082558;27;20027;-72
2023/06/29 00:43:49;;;;;;;6.75;3.67;;;11.90;99.90;;;;;;5134772;27;20053;-72
2023/06/29 00:46:18;;;;;;;13.25;6.93;;;11.90;99.90;;;;;;5135080;27;20031;-72
2023/06/29 00:48:44;;;;;;;25.35;14.07;;;11.90;99.90;;;;;;5134730;27;20065;-72
2023/06/29 00:51:11;;;;;;;22.65;12.73;;;11.90;99.90;;;;;;5134613;27;20054;-72
2023/06/29 00:53:37;;;;;;;15.88;9.13;;;11.90;99.90;;;;;;5134346;27;20391;-72
2023/06/29 00:56:03;;;;;;;8.98;4.95;;;11.90;99.90;;;;;;5116671;27;20102;-72
2023/06/29 00:58:29;;;;;;;5.55;3.15;;;11.90;99.90;;;;;;5134032;27;20370;-72
2023/06/29 01:00:55;;;;;;;2.55;1.80;;;11.90;99.90;;;;;;5134517;27;20026;-72
2023/06/29 01:03:22;;;;;;;3.53;1.90;;;11.90;99.90;;;;;;5134562;27;20028;-72
2023/06/29 01:05:55;;;;;;;2.90;1.60;;;11.90;99.90;;;;;;5116229;27;20034;-72
2023/06/29 01:08:29;;;;;;;3.05;1.60;;;11.90;99.90;;;;;;5134293;27;20020;-72
2023/06/29 01:10:57;;;;;;;2.78;1.70;;;11.80;99.90;;;;;;5116720;27;20094;-72
2023/06/29 01:13:24;;;;;;;3.60;1.88;;;11.80;99.90;;;;;;5134276;27;20087;-72
2023/06/29 01:15:51;;;;;;;2.83;1.88;;;11.80;99.90;;;;;;5134856;27;20120;-72
2023/06/29 01:18:18;;;;;;;2.35;1.67;;;11.80;99.90;;;;;;5134340;27;20029;-71
2023/06/29 01:20:49;;;;;;;2.75;1.63;;;11.70;99.90;;;;;;5115994;28;20031;-72
2023/06/29 01:23:24;;;;;;;2.92;1.80;;;11.70;99.90;;;;;;5134203;28;20102;-72
2023/06/29 01:25:51;;;;;;;2.45;1.55;;;11.60;99.90;;;;;;5134106;28;20064;-73
2023/06/29 01:28:17;;;;;;;3.92;1.63;;;11.60;99.90;;;;;;5134098;28;20027;-72
2023/06/29 01:30:49;;;;;;;3.08;1.90;;;11.60;99.90;;;;;;5134128;28;20027;-72
2023/06/29 01:33:20;;;;;;;3.05;1.88;;;11.60;99.90;;;;;;5116880;28;20016;-72
2023/06/29 01:35:46;;;;;;;;;;;11.60;99.90;;;;;;5134567;28;20448;-71
2023/06/29 01:38:49;;;;;;;3.30;1.90;;;11.50;99.90;;;;;;5133797;28;19907;-72
2023/06/29 01:41:16;;;;;;;4.03;1.70;;;11.50;99.90;;;;;;5077779;28;20036;-72
2023/06/29 01:43:43;;;;;;;2.78;1.70;;;11.50;99.90;;;;;;5134028;28;20362;-72
2023/06/29 01:46:10;;;;;;;2.63;1.67;;;11.40;99.90;;;;;;5115717;28;20485;-72
2023/06/29 01:48:37;;;;;;;5.28;2.10;;;11.40;99.90;;;;;;5133997;28;20042;-72
2023/06/29 01:51:03;;;;;;;3.65;1.70;;;11.40;99.90;;;;;;5116274;28;20023;-72
2023/06/29 01:53:29;;;;;;;3.60;1.73;;;11.30;99.90;;;;;;5115678;28;20019;-72
2023/06/29 01:55:55;;;;;;;4.50;2.13;;;11.30;99.90;;;;;;5115621;28;20381;-72
2023/06/29 01:58:20;;;;;;;3.00;1.80;;;11.30;99.90;;;;;;5134231;28;20030;-72
2023/06/29 02:00:46;;;;;;;3.03;1.73;;;11.10;99.90;;;;;;5115530;28;20493;-72
2023/06/29 02:03:11;;;;;;;3.05;2.00;;;11.00;99.90;;;;;;5133881;28;20068;-72
2023/06/29 02:05:37;;;;;;;2.90;1.73;;;11.00;99.90;;;;;;5133792;28;20035;-72
2023/06/29 02:08:03;;;;;;;3.63;1.88;;;11.00;99.90;;;;;;5115134;28;20031;-72
2023/06/29 02:10:29;;;;;;;5.35;2.08;;;11.00;99.90;;;;;;5135429;27;20447;-72
2023/06/29 02:12:55;;;;;;;3.88;1.70;;;11.00;99.90;;;;;;5137789;27;20110;-72
2023/06/29 02:15:20;;;;;;;3.10;2.00;;;11.00;99.90;;;;;;5137555;27;20471;-72
2023/06/29 02:17:46;;;;;;;5.05;1.90;;;11.00;99.90;;;;;;5137650;27;20026;-72
2023/06/29 02:20:12;;;;;;;3.50;2.25;;;11.00;99.90;;;;;;5137616;27;20058;-72
2023/06/29 02:22:37;;;;;;;3.45;2.33;;;11.10;99.90;;;;;;5137295;27;20070;-72
2023/06/29 02:25:04;;;;;;;3.35;1.88;;;11.00;99.90;;;;;;5137403;27;20031;-72
2023/06/29 02:27:29;;;;;;;3.58;1.92;;;11.00;99.90;;;;;;5137749;27;20034;-72
2023/06/29 02:29:55;;;;;;;3.15;1.85;;;11.00;99.90;;;;;;5102005;27;20027;-72
2023/06/29 02:32:21;;;;;;;2.72;1.60;;;10.90;99.90;;;;;;5137437;27;20023;-72
2023/06/29 02:34:46;;;;;;;5.32;2.10;;;11.00;99.90;;;;;;5137471;27;20024;-72
2023/06/29 02:37:12;;;;;;;3.50;1.80;;;10.90;99.90;;;;;;5118834;27;20023;-72
2023/06/29 02:39:38;;;;;;;4.15;2.00;;;10.90;99.90;;;;;;5137399;27;20396;-72
2023/06/29 02:42:03;;;;;;;6.35;2.10;;;10.80;99.90;;;;;;5137226;27;20054;-72
2023/06/29 02:44:29;;;;;;;3.88;2.45;;;10.70;99.90;;;;;;5137642;27;20456;-72
2023/06/29 02:46:55;;;;;;;3.75;2.28;;;10.60;99.90;;;;;;5137115;27;20042;-72
2023/06/29 02:49:20;;;;;;;2.85;1.90;;;10.50;99.90;;;;;;5137067;27;20030;-72
2023/06/29 02:51:46;;;;;;;6.78;2.10;;;10.50;99.90;;;;;;5136918;27;20023;-72
2023/06/29 02:54:12;;;;;;;3.55;2.13;;;10.60;99.90;;;;;;5118295;27;20019;-72
2023/06/29 02:56:37;;;;;;;4.05;2.10;;;10.60;99.90;;;;;;5136930;27;20019;-72
2023/06/29 02:59:03;;;;;;;3.78;1.70;;;10.60;99.90;;;;;;5118518;27;20031;-72
2023/06/29 03:01:29;;;;;;;2.75;2.10;;;10.60;99.90;;;;;;5136825;27;20023;-72
2023/06/29 03:03:55;;;;;;;3.35;1.90;;;10.60;99.90;;;;;;5136736;27;20381;-72
2023/06/29 03:06:20;;;;;;;4.72;1.75;;;10.60;99.90;;;;;;5136732;27;20023;-72
2023/06/29 03:08:48;;;;;;;3.83;2.00;;;10.60;99.90;;;;;;5118124;27;20115;-72
2023/06/29 03:11:14;;;;;;;3.22;1.70;;;10.60;99.90;;;;;;5098354;28;20024;-74
2023/06/29 03:13:39;;;;;;;2.67;1.77;;;10.50;99.90;;;;;;5116232;28;20036;-74
2023/06/29 03:16:05;;;;;;;4.05;1.63;;;10.50;99.90;;;;;;5080825;28;20058;-75
2023/06/29 03:18:31;;;;;;;4.57;2.13;;;10.50;99.90;;;;;;5098334;28;20115;-74
2023/06/29 03:20:57;;;;;;;2.88;1.75;;;10.40;99.90;;;;;;5097938;28;20027;-75
2023/06/29 03:23:22;;;;;;;3.08;1.95;;;10.30;99.90;;;;;;5096661;28;20028;-74
2023/06/29 03:25:48;;;;;;;4.07;2.00;;;10.30;99.90;;;;;;5115663;28;20035;-74
2023/06/29 03:28:14;;;;;;;3.97;2.25;;;10.30;99.90;;;;;;5116179;28;20028;-74
2023/06/29 03:30:39;;;;;;;5.43;2.20;;;10.30;99.90;;;;;;5116141;28;20376;-75
2023/06/29 03:33:05;;;;;;;5.38;2.38;;;10.30;99.90;;;;;;5116180;28;20483;-74
2023/06/29 03:35:31;;;;;;;3.72;1.90;;;10.30;99.90;;;;;;5115463;28;20028;-74
2023/06/29 03:37:56;;;;;;;4.35;2.10;;;10.30;99.90;;;;;;5096940;28;20039;-74
2023/06/29 03:40:22;;;;;;;3.33;2.10;;;10.30;99.90;;;;;;5116279;28;20470;-75
2023/06/29 03:42:49;;;;;;;3.95;2.20;;;10.30;99.90;;;;;;5115437;28;20034;-74
2023/06/29 03:45:15;;;;;;;2.83;1.85;;;10.20;99.90;;;;;;5115621;28;20027;-75
2023/06/29 03:47:41;;;;;;;2.97;1.60;;;10.30;99.90;;;;;;5115910;28;20028;-76
2023/06/29 03:50:06;;;;;;;3.50;2.05;;;10.20;99.90;;;;;;5115255;28;20389;-75
2023/06/29 03:52:32;;;;;;;3.53;1.48;;;10.20;99.90;;;;;;5115276;28;20031;-75
2023/06/29 03:54:58;;;;;;;3.55;1.95;;;10.20;99.90;;;;;;5115421;28;20023;-76
2023/06/29 03:57:23;;;;;;;4.97;2.08;;;10.20;99.90;;;;;;5115165;28;20034;-75
2023/06/29 03:59:49;;;;;;;3.13;1.90;;;10.20;99.90;;;;;;5115022;28;20035;-75
2023/06/29 04:02:14;;;;;;;4.60;1.88;;;10.20;99.90;;;;;;5115103;28;20382;-76
2023/06/29 04:04:40;;;;;;;4.10;1.95;;;10.10;99.90;;;;;;5115234;28;20031;-75
2023/06/29 04:07:06;;;;;;;3.28;1.77;;;10.20;99.90;;;;;;5114899;28;20031;-75
2023/06/29 04:09:32;;;;;;;5.53;2.08;;;10.20;99.90;;;;;;5114826;28;20035;-76
2023/06/29 04:11:57;;;;;;;8.02;2.30;;;10.10;99.90;;;;;;5115028;28;20028;-75
2023/06/29 04:14:23;;;;;;;6.07;2.00;;;10.20;99.90;;;;;;5114667;28;20050;-75
2023/06/29 04:16:48;;;;;;;9.38;2.33;;;10.10;99.90;;;;;;5115030;28;20038;-75
2023/06/29 04:19:14;;;;;;;4.45;2.10;;;10.20;99.90;;;;;;5115017;28;20024;-75
2023/06/29 04:21:40;;;;;;;3.88;1.92;;;10.20;99.90;;;;;;5114691;28;20034;-75
2023/06/29 04:24:06;;;;;;;3.45;1.90;;;10.20;99.90;;;;;;5114315;28;20035;-75
2023/06/29 04:26:31;;;;;;;3.25;2.00;;;10.20;99.90;;;;;;5114616;28;20477;-76
2023/06/29 04:29:02;;;;;;;4.53;2.08;;;10.20;99.90;;;;;;5114823;28;20035;-76
2023/06/29 04:31:29;;;;;;;6.07;2.33;;;10.20;99.90;;;;;;5114638;28;20088;-75
2023/06/29 04:33:57;;;;;;;3.30;1.80;;;10.30;99.90;;;;;;5113464;28;20092;-75
2023/06/29 04:36:24;;;;;;;3.15;2.08;;;10.30;99.90;;;;;;5114592;28;20028;-75
2023/06/29 04:38:50;;;;;;;3.22;2.00;;;10.30;99.90;;;;;;5114141;28;20027;-75
2023/06/29 04:41:16;;;;;;;3.13;2.10;;;10.30;99.90;;;;;;5114252;28;20028;-75
2023/06/29 04:43:42;;;;;;;2.70;2.00;;;10.40;99.90;;;;;;5126785;27;20035;-75
2023/06/29 04:46:07;;;;;;;3.10;1.95;;;10.40;99.90;;;;;;5134515;27;20126;-75
2023/06/29 04:48:36;;;;;;;3.53;1.80;;;10.40;99.90;;;;;;5134818;27;20038;-75
2023/06/29 04:51:05;;;;;;;3.85;2.00;;;10.40;99.90;;;;;;5134460;27;20106;-75
2023/06/29 04:53:34;;;;;;;4.32;2.25;;;10.40;99.90;;;;;;5134322;27;20035;-74
2023/06/29 04:56:03;;;;;;;4.65;2.30;;;10.40;99.90;;;;;;5133816;27;20019;-75
2023/06/29 04:58:29;;;;;;;5.07;2.28;;;10.40;99.90;;;;;;5135187;27;20019;-75
2023/06/29 05:00:55;;;;;;;3.60;2.08;;;10.40;99.90;;;;;;5134574;27;20031;-75
2023/06/29 05:03:21;;;;;;;3.83;1.95;;;10.50;99.90;;;;;;5134534;27;20023;-74
2023/06/29 05:05:47;;;;;;;4.13;2.38;;;10.60;99.90;;;;;;5134466;27;20035;-75
2023/06/29 05:08:13;;;;;;;2.75;1.92;;;10.60;99.90;;;;;;5134125;27;20059;-75
2023/06/29 05:10:39;;;;;;;5.30;2.33;;;10.70;99.90;;;;;;5134712;27;20031;-75
2023/06/29 05:13:05;;;;;;;5.00;2.35;;;10.70;99.90;;;;;;5134362;27;20126;-75
2023/06/29 05:15:31;;;;;;;4.72;2.80;;;10.70;99.90;;;;;;5134509;27;20129;-74
2023/06/29 05:17:56;;;;;;;3.63;2.70;;;10.70;99.90;;;;;;5134391;27;20027;-75
2023/06/29 05:20:22;;;;;;;3.50;2.40;;;10.70;99.90;;;;;;5134299;27;20039;-74
2023/06/29 05:22:48;;;;;;;4.00;2.20;;;10.80;99.90;;;;;;5115716;27;20031;-74
2023/06/29 05:25:14;;;;;;;4.50;2.25;;;10.80;99.90;;;;;;5134217;28;20027;-74
2023/06/29 05:27:41;;;;;;;3.75;2.40;;;10.90;99.90;;;;;;5134584;28;20058;-75
2023/06/29 05:30:08;;;;;;;4.13;2.40;;;10.90;99.90;;;;;;5134336;28;20489;-74
2023/06/29 05:32:35;;;;;;;4.15;2.60;;;11.00;99.90;;;;;;5116069;28;20091;-75
2023/06/29 05:35:01;;;;;;;4.30;2.30;;;11.10;99.90;;;;;;5134147;28;20019;-74
2023/06/29 05:37:27;;;;;;;3.85;2.70;;;11.10;99.90;;;;;;5134367;28;20038;-74
2023/06/29 05:39:55;;;;;;;3.80;2.17;;;11.10;99.90;;;;;;5118979;28;20076;-75
2023/06/29 05:42:21;;;;;;;4.93;2.78;;;11.20;99.90;;;;;;5113592;28;20020;-75
2023/06/29 05:44:46;;;;;;;3.25;2.42;;;11.30;99.90;;;;;;5114460;28;20081;-74
2023/06/29 05:47:12;;;;;;;5.63;2.67;;;11.30;99.90;;;;;;5117743;28;20533;-74
2023/06/29 05:49:38;;;;;;;5.95;3.03;;;11.40;99.90;;;;;;5117671;28;20034;-75
2023/06/29 05:52:03;;;;;;;6.30;2.85;;;11.50;99.90;;;;;;5117541;28;20036;-75
2023/06/29 05:54:29;;;;;;;4.25;2.60;;;11.50;99.90;;;;;;5098972;28;20397;-74
2023/06/29 05:56:55;;;;;;;5.68;2.88;;;11.60;99.90;;;;;;5117546;28;20059;-75
2023/06/29 05:59:20;;;;;;;4.72;3.33;;;11.70;99.90;;;;;;5099320;28;20028;-74
2023/06/29 06:01:46;;;;;;;4.70;2.88;;;11.80;99.90;;;;;;5117568;28;20032;-75
2023/06/29 06:04:11;;;;;;;5.90;3.50;;;11.90;99.90;;;;;;5117568;28;20027;-75
2023/06/29 06:06:39;;;;;;;4.45;3.20;;;12.00;99.90;;;;;;5117402;28;20401;-74
2023/06/29 06:09:05;;;;;;;5.20;3.20;;;12.10;99.90;;;;;;5124442;27;20033;-75
2023/06/29 06:11:30;;;;;;;5.60;3.42;;;12.20;99.90;;;;;;5119445;27;20443;-76
2023/06/29 06:13:56;;;;;;;7.03;4.22;;;12.30;99.90;;;;;;5137605;27;20042;-74
2023/06/29 06:16:22;;;;;;;6.93;3.90;;;12.40;99.90;;;;;;5137791;27;20499;-75
2023/06/29 06:18:47;;;;;;;5.32;4.10;;;12.50;99.90;;;;;;5137741;27;20448;-75
2023/06/29 06:21:13;;;;;;;5.45;3.78;;;12.60;99.90;;;;;;5137950;27;20054;-76
2023/06/29 06:23:38;;;;;;;7.55;4.78;;;12.70;99.90;;;;;;5137232;27;20031;-74
2023/06/29 06:26:07;;;;;;;6.10;3.20;;;12.80;99.90;;;;;;5137855;27;20023;-75
2023/06/29 06:28:33;;;;;;;3.75;2.80;;;12.90;99.90;;;;;;5138064;27;20037;-75
2023/06/29 06:30:58;;;;;;;5.20;3.38;;;12.90;99.90;;;;;;5137390;27;20027;-75
2023/06/29 06:33:24;;;;;;;5.47;3.20;;;13.00;99.90;;;;;;5137409;27;20030;-75
2023/06/29 06:35:49;;;;;;;4.97;3.13;;;13.00;99.90;;;;;;5137302;27;20023;-75
2023/06/29 06:38:15;;;;;;;9.27;3.55;;;13.20;99.90;;;;;;5119291;27;20026;-74
2023/06/29 06:40:41;;;;;;;7.30;4.00;;;13.20;99.90;;;;;;5137045;27;20102;-74
2023/06/29 06:43:07;;;;;;;6.85;4.68;;;13.30;99.90;;;;;;5137214;27;20396;-75
2023/06/29 06:45:32;;;;;;;6.43;3.85;;;13.40;99.90;;;;;;5137158;27;20027;-74
2023/06/29 06:47:58;;;;;;;4.68;3.20;;;13.50;99.90;;;;;;5137396;27;20037;-75
2023/06/29 06:50:23;;;;;;;4.50;2.83;;;13.60;99.90;;;;;;5137001;27;20091;-74
2023/06/29 06:52:49;;;;;;;5.53;2.85;;;13.70;99.90;;;;;;5118609;27;20076;-75
2023/06/29 06:55:15;;;;;;;5.45;2.88;;;13.80;99.90;;;;;;5136711;27;20083;-75
2023/06/29 06:57:41;;;;;;;4.95;2.78;;;13.90;99.90;;;;;;5135848;27;20016;-74
2023/06/29 07:00:12;;;;;;;7.90;3.75;;;14.00;99.90;;;;;;5137180;27;20381;-75
2023/06/29 07:02:38;;;;;;;5.03;2.50;;;14.10;99.90;;;;;;5137479;27;20054;-75
2023/06/29 07:05:05;;;;;;;4.65;2.90;;;14.30;99.90;;;;;;5136761;27;20066;-75
2023/06/29 07:07:31;;;;;;;6.53;3.40;;;14.40;99.90;;;;;;5136799;27;20477;-74
2023/06/29 07:09:56;;;;;;;5.25;2.92;;;14.60;99.90;;;;;;5136414;27;20038;-74
2023/06/29 07:12:22;;;;;;;6.10;2.70;;;14.70;99.90;;;;;;5136983;27;20023;-75
2023/06/29 07:14:49;;;;;;;5.70;3.00;;;14.90;99.90;;;;;;5136832;27;20031;-74
2023/06/29 07:17:14;;;;;;;3.90;2.67;;;15.00;99.90;;;;;;5136820;27;20023;-75
2023/06/29 07:19:40;;;;;;;5.10;2.75;;;15.20;99.90;;;;;;5136517;27;20035;-75
2023/06/29 07:22:06;;;;;;;6.00;2.63;;;15.30;99.90;;;;;;5136425;27;20031;-75
2023/06/29 07:24:32;;;;;;;5.25;2.45;;;15.50;99.90;;;;;;5135937;27;20035;-75
2023/06/29 07:26:57;;;;;;;5.22;2.65;;;15.70;99.90;;;;;;5136372;27;20087;-75
2023/06/29 07:29:23;;;;;;;5.85;2.70;;;15.80;99.90;;;;;;5117874;27;20039;-75
2023/06/29 07:31:49;;;;;;;4.38;2.80;;;15.90;99.90;;;;;;5136180;27;20507;-74
2023/06/29 07:34:14;;;;;;;6.82;3.03;;;16.00;99.90;;;;;;5136206;27;20034;-75
2023/06/29 07:36:40;;;;;;;5.18;2.70;;;16.10;99.90;;;;;;5136199;27;20072;-75
2023/06/29 07:39:06;;;;;;;5.65;3.08;;;16.30;99.90;;;;;;5135781;27;20019;-74
2023/06/29 07:41:31;;;;;;;6.60;3.38;;;16.50;99.90;;;;;;5136125;27;20055;-75
2023/06/29 07:43:57;;;;;;;4.63;3.05;;;16.60;99.90;;;;;;5136464;27;20076;-74
2023/06/29 07:46:23;;;;;;;4.13;2.50;;;16.80;99.90;;;;;;5136543;27;20031;-75
2023/06/29 07:48:50;;;;;;;4.25;2.17;;;16.90;99.90;;;;;;5136157;27;20023;-75
2023/06/29 07:51:17;;;;;;;3.85;2.00;;;17.00;99.90;;;;;;5117664;27;20042;-75
2023/06/29 07:53:43;;;;;;;5.57;2.60;;;17.20;99.90;;;;;;5135548;27;20020;-74
2023/06/29 07:56:09;;;;;;;4.68;2.30;;;17.30;99.90;;;;;;5136060;27;20381;-75
2023/06/29 07:58:35;;;;;;;4.82;2.70;;;17.50;99.90;;;;;;5135756;27;20026;-74
2023/06/29 08:01:01;;;;;;;4.40;2.13;;;17.70;99.90;;;;;;5135746;27;20399;-75
2023/06/29 08:03:27;;;;;;;4.65;2.30;;;17.80;99.90;;;;;;5135782;27;20032;-75
2023/06/29 08:05:53;;;;;;;6.38;2.63;;;17.90;99.90;;;;;;5135770;27;20413;-74
2023/06/29 08:08:20;;;;;;;5.65;2.63;;;18.00;99.90;;;;;;5135620;27;20139;-74
2023/06/29 08:10:47;;;;;;;4.72;2.65;;;18.20;99.90;;;;;;5135329;27;20023;-74
2023/06/29 08:13:13;;;;;;;7.97;2.42;;;18.30;99.90;;;;;;5135854;27;20030;-76
2023/06/29 08:15:38;;;;;;;5.57;2.85;;;18.40;99.90;;;;;;5135750;27;20027;-74
2023/06/29 08:18:04;;;;;;;3.78;1.98;;;18.60;99.90;;;;;;5135368;27;20435;-75
2023/06/29 08:20:30;;;;;;;4.15;2.30;;;18.70;99.90;;;;;;5135620;27;20399;-75
2023/06/29 08:22:57;;;;;;;3.80;2.03;;;18.80;99.90;;;;;;5135522;27;20440;-74
2023/06/29 08:25:22;;;;;;;7.82;2.30;;;19.00;99.90;;;;;;5134903;27;20056;-74
2023/06/29 08:27:49;;;;;;;4.20;2.03;;;19.10;99.90;;;;;;5135465;27;20377;-75
2023/06/29 08:30:16;;;;;;;4.82;2.05;;;19.30;99.90;;;;;;5135645;27;20027;-75
2023/06/29 08:32:48;;;;;;;7.28;2.47;;;19.50;99.90;;;;;;5135023;27;20026;-74
2023/06/29 08:35:14;;;;;;;5.72;2.00;;;19.60;99.90;;;;;;5135323;27;20012;-74
2023/06/29 08:37:39;;;;;;;3.22;1.77;;;19.70;99.90;;;;;;5135244;27;20035;-75
2023/06/29 08:40:06;;;;;;;3.55;1.85;;;19.90;99.10;;;;;;5134675;27;20027;-74
2023/06/29 08:42:32;;;;;;;3.45;1.63;;;20.00;98.40;;;;;;5134946;27;20023;-74
2023/06/29 08:44:57;;;;;;;4.22;2.20;;;20.10;99.10;;;;;;5135389;27;20019;-74
2023/06/29 08:47:24;;;;;;;3.45;1.60;;;20.20;99.90;;;;;;5134852;27;20189;-75
2023/06/29 08:49:55;;;;;;;5.20;2.05;;;20.30;99.90;;;;;;5135026;27;20384;-75
2023/06/29 08:52:25;;;;;;;4.07;2.00;;;20.40;98.00;;;;;;5134912;27;20023;-75
2023/06/29 08:54:52;;;;;;;6.13;2.38;;;20.50;97.90;;;;;;5134407;27;20030;-74
2023/06/29 08:57:18;;;;;;;4.88;2.67;;;20.60;98.20;;;;;;5134681;27;20027;-75
2023/06/29 08:59:45;;;;;;;3.53;1.90;;;20.60;97.30;;;;;;5134600;27;20038;-75
2023/06/29 09:02:12;;;;;;;6.47;2.30;;;20.70;97.20;;;;;;5134610;27;20076;-75
2023/06/29 09:04:37;;;;;;;4.90;2.17;;;20.90;98.70;;;;;;5134968;27;20038;-74
2023/06/29 09:07:03;;;;;;;6.95;2.22;;;21.00;97.50;;;;;;5134678;27;20027;-74
2023/06/29 09:09:30;;;;;;;6.50;2.40;;;21.10;97.80;;;;;;5116004;27;20031;-74
2023/06/29 09:11:56;;;;;;;3.33;1.85;;;21.20;95.60;;;;;;5134665;27;20072;-75
2023/06/29 09:14:23;;;;;;;5.72;1.90;;;21.30;94.90;;;;;;5134217;27;20031;-74
2023/06/29 09:16:50;;;;;;;3.40;1.83;;;21.40;94.20;;;;;;5134438;27;20058;-74
2023/06/29 09:19:18;;;;;;;7.45;2.05;;;21.50;94.10;;;;;;5115629;27;20058;-75
2023/06/29 09:21:48;;;;;;;4.65;1.80;;;21.60;94.60;;;;;;5134206;27;20191;-75
2023/06/29 09:24:18;;;;;;;3.92;2.05;;;21.70;93.90;;;;;;5133968;27;20042;-73
2023/06/29 09:26:48;;;;;;;5.77;1.80;;;21.90;92.90;;;;;;5134610;28;20068;-75
2023/06/29 09:29:13;;;;;;;2.70;1.75;;;22.00;93.00;;;;;;5135108;28;20071;-71
2023/06/29 09:31:39;;;;;;;3.42;1.65;;;22.00;93.20;;;;;;5134205;28;20486;-70
2023/06/29 09:34:21;;;;;;;5.20;2.00;;;22.20;91.30;;;;;;5134115;28;20132;-71
2023/06/29 09:36:48;;;;;;;4.65;1.58;;;22.40;92.90;;;;;;5134461;28;20019;-71
2023/06/29 09:39:14;;;;;;;3.35;1.60;;;22.50;91.80;;;;;;5133877;28;20035;-70
2023/06/29 09:41:51;;;;;;;3.63;1.33;;;22.70;92.50;;;;;;5134142;28;20102;-70
2023/06/29 09:44:19;;;;;;;3.95;1.70;;;22.90;90.70;;;;;;5133958;28;20027;-71
2023/06/29 09:46:48;;;;;;;4.45;1.60;;;23.00;89.10;;;;;;5134096;28;20019;-70
2023/06/29 09:49:14;;;;;;;3.13;1.17;;;23.20;87.70;;;;;;5134088;28;20203;-70
2023/06/29 09:51:41;;;;;;;3.88;1.50;;;23.30;84.20;;;;;;5133994;28;20028;-71
2023/06/29 09:54:14;;;;;;;2.78;1.50;;;23.50;82.30;;;;;;5133716;28;20043;-71
2023/06/29 09:56:44;;;;;;;3.30;1.42;;;23.50;79.60;;;;;;5134033;28;20100;-70
2023/06/29 09:59:13;;;;;;;4.97;1.55;;;23.60;81.30;;;;;;5134042;28;20019;-70
2023/06/29 10:01:40;;;;;;;4.35;1.75;;;23.60;81.00;;;;;;5134125;28;20023;-70
2023/06/29 10:04:06;;;;;;;3.55;1.80;;;23.70;83.00;;;;;;5133867;28;20095;-71
2023/06/29 10:06:45;;;;;;;3.97;1.30;;;23.90;82.60;;;;;;5134216;28;20382;-70
2023/06/29 10:09:16;;;;;;;2.88;1.50;;;24.10;79.80;;;;;;5115253;28;20034;-71
2023/06/29 10:11:44;;;;;;;4.63;1.70;;;24.40;78.90;;;;;;5133859;28;20023;-70
2023/06/29 10:14:13;;;;;;;2.45;1.33;;;24.40;76.80;;;;;;5133673;28;20047;-71
2023/06/29 10:16:45;;;;;;;2.47;1.42;;;24.50;75.60;;;;;;5115459;28;20100;-70
2023/06/29 10:19:18;;;;;;;3.15;1.80;;;24.60;74.80;;;;;;5133820;28;20037;-71
2023/06/29 10:21:45;;;;;;;3.17;1.35;;;24.70;72.90;;;;;;5133785;28;20029;-70
2023/06/29 10:24:19;;;;;;;3.70;1.77;;;24.80;74.50;;;;;;5133404;28;20447;-71
2023/06/29 10:26:47;;;;;;;3.15;1.60;;;24.90;73.20;;;;;;5133986;28;20031;-70
2023/06/29 10:29:12;;;;;;;;;;;25.00;72.20;;;;;;5134046;28;20031;-70
2023/06/29 10:31:42;;;;;;;;;;;25.20;72.60;;;;;;5135890;27;20321;-70
2023/06/29 10:34:07;;;;;;;;;;;25.20;70.50;;;;;;5138051;27;19948;-70
2023/06/29 10:36:49;;;;;;;;;;;25.20;68.50;;;;;;5138751;27;19911;-70
2023/06/29 10:39:33;;;;;;;;;;;25.30;68.50;;;;;;5137482;27;20262;-70
2023/06/29 10:41:59;;;;;;;;;;;25.40;67.20;;;;;;5137723;27;19907;-70
2023/06/29 10:44:33;;;;;;;;;;;25.60;69.80;;;;;;5137559;27;19968;-70
2023/06/29 10:46:58;;;;;;;;;;;25.70;69.00;;;;;;5137706;27;20353;-70
2023/06/29 10:49:25;;;;;;;;;;;25.80;67.80;;;;;;5137790;27;19912;-70
2023/06/29 10:51:54;;;;;;;;;;;25.80;68.30;;;;;;5137725;27;20361;-70
2023/06/29 10:54:23;;;;;;;;;;;25.90;66.60;;;;;;5137168;27;20342;-70
2023/06/29 10:56:58;;;;;;;;;;;26.00;68.10;;;;;;5137416;27;19918;-70
2023/06/29 10:59:25;;;;;;;;;;;26.00;64.30;;;;;;5137383;27;19914;-70
2023/06/29 11:01:51;;;;;;;;;;;26.10;65.00;;;;;;5137579;27;19952;-70
2023/06/29 11:04:17;;;;;;;;;;;26.10;65.80;;;;;;5137392;27;19927;-70
2023/06/29 11:06:42;;;;;;;;;;;26.20;66.20;;;;;;5137786;27;20377;-70
2023/06/29 11:09:12;;;;;;;;;;;26.20;69.40;;;;;;5136888;27;20284;-71
2023/06/29 11:11:38;;;;;;;;;;;26.40;63.50;;;;;;5137319;27;19964;-70
2023/06/29 11:14:04;;;;;;;;;;;26.40;66.70;;;;;;5136942;27;19922;-70
2023/06/29 11:16:31;;;;;;;;;;;26.60;62.40;;;;;;5137056;27;19903;-70
2023/06/29 11:18:56;;;;;;;;;;;26.70;68.10;;;;;;5136992;27;19908;-70
2023/06/29 11:21:25;;;;;;;;;;;26.80;67.40;;;;;;5137038;27;19915;-70
2023/06/29 11:23:50;;;;;;;;;;;26.90;64.70;;;;;;5118345;27;19903;-70
2023/06/29 11:26:16;;;;;;;;;;;27.10;65.40;;;;;;5136643;27;19903;-70
2023/06/29 11:28:42;;;;;;;;;;;27.10;64.90;;;;;;5136810;27;19903;-69
2023/06/29 11:31:07;;;;;;;;;;;27.20;62.90;;;;;;5136665;27;19918;-70
2023/06/29 11:33:33;;;;;;;;;;;27.40;66.80;;;;;;5136724;27;19911;-69
2023/06/29 11:35:59;;;;;;;;;;;27.50;63.30;;;;;;5136581;27;19952;-69
2023/06/29 11:38:25;;;;;;;;;;;27.60;64.20;;;;;;5136479;27;19935;-70
2023/06/29 11:41:01;;;;;;;;;;;27.70;62.40;;;;;;5117993;27;19950;-70
2023/06/29 11:43:28;;;;;;;;;;;27.70;61.20;;;;;;5136840;27;20310;-70
2023/06/29 11:45:55;;;;;;;;;;;27.70;59.80;;;;;;5136404;27;20369;-70
2023/06/29 11:48:21;;;;;;;;;;;27.70;61.40;;;;;;5136377;27;19907;-70
2023/06/29 11:50:48;;;;;;;;;;;27.70;62.20;;;;;;5136325;27;20283;-70
2023/06/29 11:53:17;;;;;;;;;;;27.60;61.10;;;;;;5136243;27;19911;-70
2023/06/29 11:55:53;;;;;;;;;;;27.50;63.10;;;;;;5135962;27;19952;-70
2023/06/29 11:58:18;;;;;;;;;;;27.60;63.90;;;;;;5136218;27;20341;-70
2023/06/29 12:00:44;;;;;;;;;;;27.80;61.50;;;;;;5118118;27;19942;-70
2023/06/29 12:03:10;;;;;;;;;;;27.90;63.50;;;;;;5136105;27;19952;-70
2023/06/29 12:05:42;;;;;;;;;;;28.10;63.30;;;;;;5135600;27;19914;-70
2023/06/29 12:08:08;;;;;;;;;;;28.30;61.80;;;;;;5135989;27;20288;-70
2023/06/29 12:10:35;;;;;;;;;;;28.40;62.90;;;;;;5115439;28;19931;-71
2023/06/29 12:13:01;;;;;;;;;;;28.30;61.00;;;;;;5114552;28;19914;-71
2023/06/29 12:15:27;;;;;;;;;;;28.20;60.80;;;;;;5113469;28;19912;-70
2023/06/29 12:18:11;;;;;;;5.75;2.50;;;28.30;63.00;;;;;;5114206;28;19908;-70
2023/06/29 12:20:37;;;;;;;;;;;28.30;62.70;;;;;;5113838;28;20038;-70
2023/06/29 12:23:03;;;;;;;;;;;28.30;61.20;;;;;;5113411;28;19904;-70
2023/06/29 12:25:28;;;;;;;;;;;28.40;62.00;;;;;;5112887;28;20285;-70
2023/06/29 12:27:54;;;;;;;;;;;28.40;60.20;;;;;;5115020;28;19912;-70
2023/06/29 12:30:22;;;;;;;;;;;28.40;61.80;;;;;;5115227;28;19919;-70
2023/06/29 12:32:49;;;;;;;;;;;28.30;61.90;;;;;;5114910;28;19987;-70
2023/06/29 12:35:15;;;;;;;;;;;28.30;60.40;;;;;;5114798;28;19912;-70
2023/06/29 12:37:40;;;;;;;;;;;28.20;58.80;;;;;;5114786;28;19949;-70
2023/06/29 12:40:06;;;;;;;;;;;28.30;62.80;;;;;;5114491;28;19907;-70
2023/06/29 12:42:32;;;;;;;;;;;28.50;63.20;;;;;;5114045;28;19903;-70
2023/06/29 12:44:58;;;;;;;;;;;28.50;60.00;;;;;;5112575;28;19914;-70
2023/06/29 12:47:24;;;;;;;3.80;2.80;;;28.60;59.70;;;;;;5113547;28;20417;-71
2023/06/29 12:49:50;;;;;;;;;;;28.70;61.00;;;;;;5113997;28;19907;-71
2023/06/29 12:52:17;;;;;;;;;;;28.90;62.30;;;;;;5113591;28;19911;-71
2023/06/29 12:54:43;;;;;;;;;;;29.10;57.10;;;;;;5112682;28;20265;-71
2023/06/29 12:57:08;;;;;;;;;;;29.10;62.40;;;;;;5114283;28;19907;-70
2023/06/29 12:59:36;;;;;;;;;;;29.30;58.80;;;;;;5114477;28;19992;-70
2023/06/29 13:02:04;;;;;;;;;;;29.40;57.20;;;;;;5114722;28;19907;-70
2023/06/29 13:04:38;;;;;;;;;;;29.40;57.70;;;;;;5114355;28;20381;-70
2023/06/29 13:07:04;;;;;;;;;;;29.40;57.90;;;;;;5114653;28;19910;-70
2023/06/29 13:09:34;;;;;;;;;;;29.30;57.60;;;;;;5095981;28;19943;-70
2023/06/29 13:12:00;;;;;;;;;;;29.30;56.90;;;;;;5114229;28;19911;-70
2023/06/29 13:14:25;;;;;;;;;;;29.30;58.80;;;;;;5114135;28;19916;-70
2023/06/29 13:16:51;;;;;;;;;;;29.40;59.10;;;;;;5114571;28;19914;-70
2023/06/29 13:19:16;;;;;;;;;;;29.50;57.60;;;;;;5114237;28;19907;-70
2023/06/29 13:21:42;;;;;;;;;;;29.50;57.30;;;;;;5114484;28;19914;-70
2023/06/29 13:24:07;;;;;;;;;;;29.50;56.50;;;;;;5114109;28;19915;-70
2023/06/29 13:26:33;;;;;;;;;;;29.40;56.50;;;;;;5113933;28;19914;-69
2023/06/29 13:28:59;;;;;;;5.60;3.10;;;29.50;56.90;;;;;;5113475;28;20025;-70
2023/06/29 13:31:24;;;;;;;3.80;2.60;;;29.40;56.90;;;;;;5113151;28;20114;-70
2023/06/29 13:33:50;;;;;;;;;;;29.40;57.60;;;;;;5113283;28;19916;-70